Time;durP1;ratioP1;P1;durP2;ratioP2;P2;SDS_P1;SDS_P2;PMS_P1;PMS_P2;Temp;Humidity;BMP_temperature;BMP_pressure;BME280_temperature;BME280_humidity;BME280_pressure;Samples;Min_cycle;Max_cycle;Signal;HPM_P1;HPM_P2
2022/10/09 00:01:05;;;;;;;9.90;7.40;;;10.90;99.90;;;;;;5014605;28;20485;-84
2022/10/09 00:03:34;;;;;;;12.00;8.57;;;10.80;99.90;;;;;;5012770;28;20450;-84
2022/10/09 00:06:00;;;;;;;14.47;8.53;;;10.80;99.90;;;;;;5013314;28;20533;-84
2022/10/09 00:08:27;;;;;;;11.70;7.70;;;10.80;99.90;;;;;;5012559;28;20814;-84
2022/10/09 00:10:54;;;;;;;11.70;7.60;;;10.70;99.90;;;;;;5012788;28;20833;-84
2022/10/09 00:13:21;;;;;;;9.57;8.00;;;10.70;99.90;;;;;;5012922;28;20451;-84
2022/10/09 00:15:49;;;;;;;13.80;7.50;;;10.70;99.90;;;;;;5013003;28;20450;-84
2022/10/09 00:18:17;;;;;;;9.10;7.80;;;10.60;99.90;;;;;;5013082;28;20482;-84
2022/10/09 00:20:46;;;;;;;11.60;7.70;;;10.60;99.90;;;;;;5013057;28;20470;-84
2022/10/09 00:23:16;;;;;;;11.93;8.50;;;10.60;99.90;;;;;;5012681;28;20455;-84
2022/10/09 00:25:50;;;;;;;13.00;8.10;;;10.60;99.90;;;;;;5012350;28;20457;-84
2022/10/09 00:28:17;;;;;;;11.00;7.53;;;10.60;99.90;;;;;;5012319;28;20767;-84
2022/10/09 00:30:43;;;;;;;8.83;7.33;;;10.60;99.90;;;;;;5012359;28;20481;-84
2022/10/09 00:33:10;;;;;;;9.47;7.83;;;10.50;99.90;;;;;;5012623;28;20935;-84
2022/10/09 00:35:38;;;;;;;8.70;7.30;;;10.50;99.90;;;;;;5012596;28;20458;-84
2022/10/09 00:38:07;;;;;;;12.43;7.20;;;10.60;99.90;;;;;;5012248;28;20489;-84
2022/10/09 00:40:34;;;;;;;8.90;6.47;;;10.50;99.90;;;;;;5012177;28;20482;-84
2022/10/09 00:43:01;;;;;;;8.93;7.27;;;10.50;99.90;;;;;;5012588;28;20451;-84
2022/10/09 00:45:28;;;;;;;9.97;7.47;;;10.50;99.90;;;;;;5012030;28;20435;-84
2022/10/09 00:48:00;;;;;;;9.70;7.70;;;10.50;99.90;;;;;;5020358;28;20444;-85
2022/10/09 00:50:31;;;;;;;8.53;7.03;;;10.40;99.90;;;;;;5036662;28;20457;-84
2022/10/09 00:52:59;;;;;;;11.13;8.57;;;10.40;99.90;;;;;;5026433;28;20800;-84
2022/10/09 00:55:29;;;;;;;13.50;7.90;;;10.40;99.90;;;;;;5020049;28;20446;-84
2022/10/09 00:57:59;;;;;;;9.50;7.80;;;10.30;99.90;;;;;;5018507;28;20486;-84
2022/10/09 01:00:26;;;;;;;8.50;7.07;;;10.20;99.90;;;;;;5026504;28;20462;-84
2022/10/09 01:02:53;;;;;;;11.57;7.73;;;10.30;99.90;;;;;;5034228;28;20447;-85
2022/10/09 01:05:21;;;;;;;11.47;7.23;;;10.20;99.90;;;;;;5035371;28;20514;-84
2022/10/09 01:07:52;;;;;;;14.10;8.03;;;10.10;99.90;;;;;;5015071;28;20466;-84
2022/10/09 01:10:32;;;;;;;11.00;8.73;;;10.10;99.90;;;;;;5012724;28;20489;-84
2022/10/09 01:13:06;;;;;;;10.27;7.80;;;10.00;99.90;;;;;;5012356;28;20450;-84
2022/10/09 01:15:41;;;;;;;14.83;8.17;;;10.00;99.90;;;;;;5019472;28;20938;-84
2022/10/09 01:18:15;;;;;;;9.97;6.70;;;10.00;99.90;;;;;;5037478;28;20462;-85
2022/10/09 01:20:47;;;;;;;9.37;7.07;;;10.00;99.90;;;;;;5022796;28;20473;-84
2022/10/09 01:23:43;;;;;;;11.60;8.07;;;10.00;99.90;;;;;;5015910;28;20891;-84
2022/10/09 01:26:23;;;;;;;9.57;7.77;;;9.90;99.90;;;;;;5016954;28;20450;-84
2022/10/09 01:28:55;;;;;;;14.03;8.60;;;9.90;99.90;;;;;;5038366;28;20461;-84
2022/10/09 01:31:25;;;;;;;11.00;8.20;;;9.90;99.90;;;;;;5029792;28;20466;-84
2022/10/09 01:33:52;;;;;;;9.87;7.53;;;9.80;99.90;;;;;;5015706;28;20470;-84
2022/10/09 01:36:22;;;;;;;10.10;7.70;;;9.80;99.90;;;;;;5015423;28;20457;-84
2022/10/09 01:38:50;;;;;;;11.90;8.70;;;9.80;99.90;;;;;;5021172;28;20482;-84
2022/10/09 01:41:17;;;;;;;10.13;7.93;;;9.80;99.90;;;;;;5025704;28;20475;-84
2022/10/09 01:43:44;;;;;;;8.47;7.67;;;9.80;99.90;;;;;;5035787;28;20431;-84
2022/10/09 01:46:21;;;;;;;9.13;7.17;;;9.70;99.90;;;;;;5021793;28;20978;-85
2022/10/09 01:48:55;;;;;;;10.00;7.40;;;9.60;99.90;;;;;;5015010;28;20442;-84
2022/10/09 01:51:26;;;;;;;9.93;7.90;;;9.70;99.90;;;;;;5015057;28;20978;-84
2022/10/09 01:53:57;;;;;;;12.00;7.13;;;9.70;99.90;;;;;;5036094;28;20430;-84
2022/10/09 01:56:26;;;;;;;7.00;6.30;;;9.60;99.90;;;;;;5034031;28;20455;-84
2022/10/09 01:58:56;;;;;;;8.00;7.20;;;9.60;99.90;;;;;;5023321;28;20863;-84
2022/10/09 02:01:27;;;;;;;13.10;8.20;;;9.60;99.90;;;;;;5023771;28;21024;-84
2022/10/09 02:03:56;;;;;;;13.53;8.20;;;9.60;99.90;;;;;;5015942;28;20457;-84
2022/10/09 02:06:23;;;;;;;8.23;6.63;;;9.60;99.90;;;;;;5014917;28;20822;-84
2022/10/09 02:08:53;;;;;;;10.60;8.00;;;9.60;99.90;;;;;;5014783;28;20945;-84
2022/10/09 02:11:21;;;;;;;12.70;8.10;;;9.60;99.90;;;;;;5024181;28;20478;-84
2022/10/09 02:13:49;;;;;;;8.37;7.50;;;9.40;99.90;;;;;;5035242;28;20443;-84
2022/10/09 02:16:21;;;;;;;9.37;7.60;;;9.40;99.90;;;;;;5016399;28;20442;-84
2022/10/09 02:18:54;;;;;;;7.93;7.00;;;9.40;99.90;;;;;;5014840;28;20517;-84
2022/10/09 02:21:23;;;;;;;10.50;8.30;;;9.40;99.90;;;;;;5014541;28;20838;-84
2022/10/09 02:23:51;;;;;;;12.73;7.43;;;9.40;99.90;;;;;;5013825;28;20450;-84
2022/10/09 02:26:19;;;;;;;11.13;7.40;;;9.40;99.90;;;;;;5015463;28;20450;-84
2022/10/09 02:28:45;;;;;;;10.03;7.63;;;9.40;99.90;;;;;;5014236;28;20450;-84
2022/10/09 02:31:18;;;;;;;8.33;6.83;;;9.30;99.90;;;;;;5014505;28;20470;-85
2022/10/09 02:33:45;;;;;;;15.00;8.83;;;9.30;99.90;;;;;;5014721;28;20453;-84
2022/10/09 02:36:13;;;;;;;12.47;8.37;;;9.30;99.90;;;;;;5014198;28;20923;-84
2022/10/09 02:38:40;;;;;;;9.40;8.00;;;9.30;99.90;;;;;;5014264;28;20580;-84
2022/10/09 02:41:06;;;;;;;8.47;7.60;;;9.20;99.90;;;;;;5014733;28;21005;-84
2022/10/09 02:43:33;;;;;;;17.67;8.53;;;9.20;99.90;;;;;;5035030;28;20454;-84
2022/10/09 02:46:00;;;;;;;11.47;7.37;;;9.20;99.90;;;;;;5036672;28;20438;-84
2022/10/09 02:48:26;;;;;;;8.40;6.40;;;9.20;99.90;;;;;;5018219;28;20462;-84
2022/10/09 02:50:53;;;;;;;9.10;8.10;;;9.20;99.90;;;;;;5014670;28;20466;-84
2022/10/09 02:53:21;;;;;;;8.63;7.70;;;9.20;99.90;;;;;;5014662;28;20442;-84
2022/10/09 02:55:48;;;;;;;7.97;6.67;;;9.30;99.90;;;;;;5014394;28;20472;-84
2022/10/09 02:58:15;;;;;;;7.50;6.77;;;9.30;99.90;;;;;;5013696;28;20450;-84
2022/10/09 03:00:41;;;;;;;9.93;7.03;;;9.10;99.90;;;;;;5016143;28;20467;-84
2022/10/09 03:03:08;;;;;;;11.50;7.37;;;9.20;99.90;;;;;;5013991;28;20833;-84
2022/10/09 03:05:35;;;;;;;8.00;7.10;;;9.20;99.90;;;;;;5013888;28;20447;-84
2022/10/09 03:08:01;;;;;;;8.43;6.83;;;9.20;99.90;;;;;;5031829;28;20447;-85
2022/10/09 03:10:29;;;;;;;8.67;7.43;;;9.10;99.90;;;;;;5056416;28;20450;-84
2022/10/09 03:12:56;;;;;;;10.87;6.63;;;9.10;99.90;;;;;;5058213;28;20433;-83
2022/10/09 03:15:23;;;;;;;9.87;7.70;;;9.00;99.90;;;;;;5051953;28;20545;-84
2022/10/09 03:17:50;;;;;;;7.43;6.60;;;8.90;99.90;;;;;;5048867;28;20451;-84
2022/10/09 03:20:17;;;;;;;8.43;7.23;;;8.90;99.90;;;;;;5034928;28;20487;-84
2022/10/09 03:22:43;;;;;;;11.30;7.50;;;8.90;99.90;;;;;;5033577;28;20457;-84
2022/10/09 03:25:10;;;;;;;7.40;6.57;;;8.90;99.90;;;;;;5049646;28;20426;-84
2022/10/09 03:27:38;;;;;;;8.37;7.00;;;8.90;99.90;;;;;;5051137;28;20452;-84
2022/10/09 03:30:06;;;;;;;9.73;6.40;;;8.80;99.90;;;;;;5034200;28;20488;-85
2022/10/09 03:32:33;;;;;;;7.97;6.30;;;8.80;99.90;;;;;;5036561;28;20857;-84
2022/10/09 03:34:59;;;;;;;9.50;6.70;;;8.80;99.90;;;;;;5036615;28;20445;-84
2022/10/09 03:37:26;;;;;;;12.30;7.20;;;8.80;99.90;;;;;;5033401;28;20441;-84
2022/10/09 03:39:53;;;;;;;8.53;6.03;;;8.80;99.90;;;;;;5032616;28;21025;-84
2022/10/09 03:42:20;;;;;;;7.23;6.37;;;8.70;99.90;;;;;;5033084;28;20454;-84
2022/10/09 03:44:48;;;;;;;9.30;6.60;;;8.70;99.90;;;;;;5033260;28;20930;-84
2022/10/09 03:47:15;;;;;;;6.97;6.30;;;8.70;99.90;;;;;;5033693;28;20458;-84
2022/10/09 03:49:42;;;;;;;7.87;6.70;;;8.70;99.90;;;;;;5032460;28;20861;-84
2022/10/09 03:52:08;;;;;;;9.00;7.10;;;8.60;99.90;;;;;;5032718;28;20449;-84
2022/10/09 03:54:35;;;;;;;9.93;7.07;;;8.60;99.90;;;;;;5035109;28;20449;-84
2022/10/09 03:57:02;;;;;;;15.07;7.20;;;8.60;99.90;;;;;;5052128;28;20440;-84
2022/10/09 03:59:28;;;;;;;8.47;7.63;;;8.60;99.90;;;;;;5055478;28;20485;-84
2022/10/09 04:01:56;;;;;;;9.30;6.90;;;8.60;99.90;;;;;;5033546;28;20462;-84
2022/10/09 04:04:23;;;;;;;10.77;8.17;;;8.60;99.90;;;;;;5032686;28;20449;-84
2022/10/09 04:06:50;;;;;;;8.20;7.50;;;8.50;99.90;;;;;;5032100;28;20448;-84
2022/10/09 04:09:17;;;;;;;10.93;8.10;;;8.50;99.90;;;;;;5032047;28;20446;-84
2022/10/09 04:11:43;;;;;;;9.60;8.30;;;8.50;99.90;;;;;;5032148;28;20962;-84
2022/10/09 04:14:10;;;;;;;9.57;7.63;;;8.50;99.90;;;;;;5031712;28;20445;-84
2022/10/09 04:16:37;;;;;;;10.00;7.87;;;8.40;99.90;;;;;;5041597;28;20432;-84
2022/10/09 04:19:05;;;;;;;7.77;6.53;;;8.50;99.90;;;;;;5051838;28;20478;-84
2022/10/09 04:21:32;;;;;;;6.43;5.73;;;8.50;99.90;;;;;;5033495;28;20465;-84
2022/10/09 04:23:59;;;;;;;7.57;6.17;;;8.50;99.90;;;;;;5036687;28;20964;-85
2022/10/09 04:26:25;;;;;;;7.20;6.20;;;8.50;99.90;;;;;;5052541;28;20456;-84
2022/10/09 04:28:52;;;;;;;8.23;6.20;;;8.50;99.90;;;;;;5046934;28;20818;-84
2022/10/09 04:31:19;;;;;;;8.70;6.17;;;8.50;99.90;;;;;;5032177;28;20466;-84
2022/10/09 04:33:45;;;;;;;6.40;5.80;;;8.50;99.90;;;;;;5032320;28;20445;-84
2022/10/09 04:36:14;;;;;;;7.40;6.07;;;8.60;99.90;;;;;;5032316;28;20442;-84
2022/10/09 04:38:40;;;;;;;10.10;6.60;;;8.50;99.90;;;;;;5032066;28;21011;-84
2022/10/09 04:41:07;;;;;;;7.20;5.90;;;8.50;99.90;;;;;;5032777;28;20473;-84
2022/10/09 04:43:35;;;;;;;8.13;6.30;;;8.50;99.90;;;;;;5032367;28;20817;-84
2022/10/09 04:46:04;;;;;;;7.97;5.97;;;8.40;99.90;;;;;;5031813;28;20823;-84
2022/10/09 04:48:31;;;;;;;7.73;6.63;;;8.40;99.90;;;;;;5032614;28;20449;-84
2022/10/09 04:50:58;;;;;;;6.17;5.57;;;8.40;99.90;;;;;;5035921;28;20815;-84
2022/10/09 04:53:26;;;;;;;7.07;6.37;;;8.30;99.90;;;;;;5038168;28;20451;-84
2022/10/09 04:55:52;;;;;;;19.73;7.20;;;8.30;99.90;;;;;;5036106;28;20461;-84
2022/10/09 04:58:19;;;;;;;6.73;6.03;;;8.30;99.90;;;;;;5035461;28;20449;-84
2022/10/09 05:00:47;;;;;;;9.43;5.93;;;8.30;99.90;;;;;;5044044;28;20485;-84
2022/10/09 05:03:14;;;;;;;7.50;6.70;;;8.20;99.90;;;;;;5059039;28;20438;-84
2022/10/09 05:05:40;;;;;;;10.03;6.43;;;8.20;99.90;;;;;;5041279;28;20442;-85
2022/10/09 05:08:07;;;;;;;5.93;5.40;;;8.20;99.90;;;;;;5036083;28;20492;-85
2022/10/09 05:10:35;;;;;;;7.07;5.37;;;8.10;99.90;;;;;;5042009;28;20468;-84
2022/10/09 05:13:02;;;;;;;7.93;5.73;;;8.10;99.90;;;;;;5059223;28;20443;-84
2022/10/09 05:15:28;;;;;;;9.73;6.63;;;8.20;99.90;;;;;;5035835;28;20450;-84
2022/10/09 05:17:55;;;;;;;7.70;5.77;;;8.10;99.90;;;;;;5035561;28;20442;-84
2022/10/09 05:20:22;;;;;;;8.20;6.30;;;8.20;99.90;;;;;;5035691;28;20489;-84
2022/10/09 05:22:49;;;;;;;8.00;6.60;;;8.20;99.90;;;;;;5035883;28;20445;-84
2022/10/09 05:25:15;;;;;;;8.50;6.47;;;8.10;99.90;;;;;;5035569;28;20451;-84
2022/10/09 05:27:43;;;;;;;7.40;6.23;;;8.10;99.90;;;;;;5035119;28;20942;-84
2022/10/09 05:30:11;;;;;;;6.93;6.23;;;8.10;99.90;;;;;;5036649;28;20473;-84
2022/10/09 05:32:38;;;;;;;6.13;5.53;;;8.10;99.90;;;;;;5036142;28;20449;-84
2022/10/09 05:35:05;;;;;;;9.97;6.37;;;8.10;99.90;;;;;;5057266;28;20454;-84
2022/10/09 05:37:31;;;;;;;7.30;6.60;;;8.00;99.90;;;;;;5059161;28;21030;-84
2022/10/09 05:39:58;;;;;;;9.73;6.40;;;8.00;99.90;;;;;;5051828;28;20485;-84
2022/10/09 05:42:25;;;;;;;8.87;6.17;;;8.00;99.90;;;;;;5054049;28;20449;-84
2022/10/09 05:44:53;;;;;;;9.53;6.10;;;8.00;99.90;;;;;;5055554;28;20441;-84
2022/10/09 05:47:19;;;;;;;10.73;6.40;;;7.90;99.90;;;;;;5043823;28;20437;-84
2022/10/09 05:49:46;;;;;;;7.53;6.63;;;7.90;99.90;;;;;;5037582;28;20472;-84
2022/10/09 05:52:13;;;;;;;7.10;5.83;;;7.90;99.90;;;;;;5035169;28;20450;-84
2022/10/09 05:54:40;;;;;;;8.10;7.30;;;8.00;99.90;;;;;;5036320;28;20446;-84
2022/10/09 05:57:07;;;;;;;8.10;6.10;;;8.00;99.90;;;;;;5035065;28;20853;-84
2022/10/09 05:59:34;;;;;;;7.73;5.30;;;8.00;99.90;;;;;;5035432;28;20679;-84
2022/10/09 06:02:03;;;;;;;7.97;6.07;;;8.00;99.90;;;;;;5035381;28;20450;-84
2022/10/09 06:04:30;;;;;;;7.03;5.80;;;8.00;99.90;;;;;;5035149;28;20453;-84
2022/10/09 06:06:56;;;;;;;7.90;6.90;;;8.00;99.90;;;;;;5034674;28;20442;-84
2022/10/09 06:09:25;;;;;;;9.90;5.70;;;7.90;99.90;;;;;;5035662;28;20441;-84
2022/10/09 06:11:53;;;;;;;8.70;6.53;;;7.90;99.90;;;;;;5041151;28;20449;-84
2022/10/09 06:14:20;;;;;;;13.00;5.73;;;8.00;99.90;;;;;;5037751;28;20815;-84
2022/10/09 06:16:47;;;;;;;8.53;6.57;;;8.10;99.90;;;;;;5035313;28;20946;-84
2022/10/09 06:19:17;;;;;;;10.07;6.47;;;8.10;99.90;;;;;;5036877;28;20478;-84
2022/10/09 06:21:45;;;;;;;6.67;6.03;;;8.20;99.90;;;;;;5043273;28;20455;-84
2022/10/09 06:24:17;;;;;;;8.60;5.87;;;8.30;99.90;;;;;;5035649;28;20445;-84
2022/10/09 06:26:44;;;;;;;7.90;5.60;;;8.20;99.90;;;;;;5035065;28;20453;-84
2022/10/09 06:29:11;;;;;;;7.33;5.80;;;8.20;99.90;;;;;;5034604;28;21034;-84
2022/10/09 06:31:38;;;;;;;7.40;6.50;;;8.30;99.90;;;;;;5035484;28;20492;-84
2022/10/09 06:34:05;;;;;;;7.03;6.43;;;8.30;99.90;;;;;;5034544;28;20446;-84
2022/10/09 06:36:34;;;;;;;10.27;6.33;;;8.30;99.90;;;;;;5034233;28;20457;-84
2022/10/09 06:39:05;;;;;;;8.30;6.50;;;8.40;99.90;;;;;;5034322;28;20449;-84
2022/10/09 06:41:31;;;;;;;11.00;6.57;;;8.40;99.90;;;;;;5035855;28;20474;-84
2022/10/09 06:44:00;;;;;;;8.90;7.40;;;8.40;99.90;;;;;;5036047;28;20454;-84
2022/10/09 06:46:29;;;;;;;7.43;6.70;;;8.40;99.90;;;;;;5035308;28;20449;-83
2022/10/09 06:48:56;;;;;;;9.20;6.50;;;8.50;99.90;;;;;;5034648;28;20457;-84
2022/10/09 06:51:23;;;;;;;10.17;7.30;;;8.50;99.90;;;;;;5036623;28;21005;-84
2022/10/09 06:53:54;;;;;;;6.53;5.93;;;8.60;99.90;;;;;;5036746;28;20452;-85
2022/10/09 06:56:22;;;;;;;7.43;6.70;;;8.60;99.90;;;;;;5054029;28;20446;-85
2022/10/09 06:58:49;;;;;;;8.00;6.13;;;8.60;99.90;;;;;;5054725;28;20437;-85
2022/10/09 07:01:18;;;;;;;9.97;6.87;;;8.60;99.90;;;;;;5059599;28;20466;-84
2022/10/09 07:03:46;;;;;;;7.70;6.90;;;8.70;99.90;;;;;;5057372;28;20448;-84
2022/10/09 07:06:15;;;;;;;9.47;7.13;;;8.70;99.90;;;;;;5042145;28;20531;-84
2022/10/09 07:08:43;;;;;;;9.13;7.80;;;8.80;99.90;;;;;;5046919;28;20430;-85
2022/10/09 07:11:15;;;;;;;8.57;7.20;;;8.80;99.90;;;;;;5055709;28;20485;-85
2022/10/09 07:13:43;;;;;;;7.53;6.83;;;8.80;99.90;;;;;;5043731;28;20445;-85
2022/10/09 07:16:11;;;;;;;8.40;7.50;;;8.90;99.90;;;;;;5035487;28;20437;-84
2022/10/09 07:18:38;;;;;;;16.63;10.33;;;8.90;99.90;;;;;;5033510;28;20450;-84
2022/10/09 07:21:08;;;;;;;9.23;7.07;;;9.00;99.90;;;;;;5034003;28;20470;-84
2022/10/09 07:23:36;;;;;;;8.10;6.57;;;9.10;99.90;;;;;;5033597;28;20456;-85
2022/10/09 07:26:12;;;;;;;7.70;6.90;;;9.20;99.90;;;;;;5033575;28;20454;-85
2022/10/09 07:28:41;;;;;;;7.87;7.07;;;9.30;99.90;;;;;;5033247;28;20456;-85
2022/10/09 07:31:09;;;;;;;11.10;6.97;;;9.40;99.90;;;;;;5032886;28;20496;-85
2022/10/09 07:33:35;;;;;;;8.47;7.20;;;9.50;99.90;;;;;;5033059;28;20445;-84
2022/10/09 07:36:03;;;;;;;12.43;7.00;;;9.60;99.90;;;;;;5032805;28;20449;-84
2022/10/09 07:38:30;;;;;;;9.83;8.53;;;9.80;99.90;;;;;;5032458;28;20448;-84
2022/10/09 07:41:00;;;;;;;11.63;7.47;;;9.90;99.90;;;;;;5032516;28;20474;-85
2022/10/09 07:43:27;;;;;;;10.90;7.00;;;9.90;99.90;;;;;;5033548;28;20818;-85
2022/10/09 07:45:58;;;;;;;8.63;7.53;;;10.10;99.90;;;;;;5033073;28;20502;-85
2022/10/09 07:48:24;;;;;;;11.30;7.33;;;10.20;99.90;;;;;;5035481;28;20449;-84
2022/10/09 07:50:51;;;;;;;7.93;7.07;;;10.40;99.90;;;;;;5036182;28;20489;-84
2022/10/09 07:53:19;;;;;;;7.57;6.87;;;10.60;99.90;;;;;;5034080;28;20450;-84
2022/10/09 07:55:47;;;;;;;7.57;6.87;;;10.70;99.90;;;;;;5034672;28;20972;-84
2022/10/09 07:58:14;;;;;;;13.30;7.77;;;10.80;99.90;;;;;;5035126;28;20529;-84
2022/10/09 08:00:41;;;;;;;8.70;7.07;;;10.90;99.90;;;;;;5036719;28;20453;-84
2022/10/09 08:03:10;;;;;;;8.90;6.90;;;11.10;99.90;;;;;;5034941;28;20461;-84
2022/10/09 08:05:37;;;;;;;9.57;7.20;;;11.40;99.90;;;;;;5031777;28;20441;-85
2022/10/09 08:08:03;;;;;;;7.00;5.97;;;11.80;99.90;;;;;;5024151;28;20497;-82
2022/10/09 08:10:31;;;;;;;7.10;5.60;;;12.10;99.90;;;;;;5036020;28;20481;-84
2022/10/09 08:12:59;;;;;;;7.17;6.50;;;12.30;99.90;;;;;;5041600;28;20421;-82
2022/10/09 08:15:26;;;;;;;7.50;5.80;;;13.00;99.90;;;;;;5039681;28;20444;-82
2022/10/09 08:17:54;;;;;;;8.90;4.97;;;14.60;99.90;;;;;;5033831;28;20447;-82
2022/10/09 08:20:22;;;;;;;5.93;5.27;;;15.80;99.90;;;;;;5035756;28;20458;-84
2022/10/09 08:22:49;;;;;;;6.07;4.60;;;15.90;99.90;;;;;;5033280;28;20933;-82
2022/10/09 08:25:16;;;;;;;6.80;6.20;;;15.50;99.90;;;;;;5026331;28;20445;-82
2022/10/09 08:27:42;;;;;;;6.13;5.53;;;15.10;99.90;;;;;;5042427;28;20421;-82
2022/10/09 08:30:09;;;;;;;8.50;6.43;;;15.40;99.90;;;;;;5035234;28;20466;-83
2022/10/09 08:32:36;;;;;;;10.43;5.87;;;15.70;99.90;;;;;;5017613;28;20813;-83
2022/10/09 08:35:03;;;;;;;6.97;5.67;;;15.40;99.90;;;;;;5020573;28;20442;-84
2022/10/09 08:37:31;;;;;;;7.70;4.50;;;15.10;99.90;;;;;;5025566;28;20481;-83
2022/10/09 08:39:58;;;;;;;6.87;4.77;;;14.80;99.90;;;;;;5009780;28;20477;-83
2022/10/09 08:42:31;;;;;;;7.93;5.37;;;14.70;99.90;;;;;;5012649;28;20815;-83
2022/10/09 08:44:58;;;;;;;6.43;3.97;;;14.60;99.90;;;;;;5022442;28;20449;-83
2022/10/09 08:47:32;;;;;;;8.30;4.40;;;14.20;99.90;;;;;;5024404;28;20437;-83
2022/10/09 08:50:04;;;;;;;4.87;3.27;;;14.30;99.90;;;;;;5037889;28;20462;-83
2022/10/09 08:52:39;;;;;;;5.20;3.97;;;14.30;99.90;;;;;;5042695;28;20437;-83
2022/10/09 08:55:16;;;;;;;4.53;4.13;;;14.30;99.90;;;;;;5020482;28;20453;-82
2022/10/09 08:57:46;;;;;;;4.83;3.80;;;14.20;99.90;;;;;;5037429;28;20423;-82
2022/10/09 09:00:17;;;;;;;7.50;3.80;;;14.40;99.90;;;;;;5034596;28;20454;-82
2022/10/09 09:03:03;;;;;;;6.07;3.80;;;14.90;99.90;;;;;;5025851;28;20445;-82
2022/10/09 09:05:37;;;;;;;5.93;4.07;;;15.60;99.90;;;;;;5026808;28;20446;-86
2022/10/09 09:08:17;;;;;;;5.90;3.77;;;15.70;99.90;;;;;;5031038;28;20801;-82
2022/10/09 09:10:51;;;;;;;6.93;3.50;;;15.80;99.60;;;;;;5007579;28;20487;-81
2022/10/09 09:13:36;;;;;;;3.93;3.50;;;15.60;99.90;;;;;;5012763;28;20450;-82
2022/10/09 09:16:10;;;;;;;6.40;4.10;;;15.70;99.80;;;;;;5032105;28;20445;-82
2022/10/09 09:18:44;;;;;;;5.17;3.33;;;15.60;99.80;;;;;;5027132;28;20445;-82
2022/10/09 09:21:23;;;;;;;4.80;3.20;;;15.70;99.40;;;;;;5014682;28;20463;-82
2022/10/09 09:23:51;;;;;;;3.83;2.90;;;15.80;98.80;;;;;;5030898;28;20452;-83
2022/10/09 09:26:20;;;;;;;3.90;2.90;;;16.10;98.40;;;;;;5032941;28;20454;-82
2022/10/09 09:28:51;;;;;;;5.07;2.83;;;16.10;97.60;;;;;;5026872;28;20452;-83
2022/10/09 09:31:22;;;;;;;4.13;2.73;;;16.10;96.60;;;;;;5015469;28;20486;-83
2022/10/09 09:33:56;;;;;;;5.37;2.97;;;16.20;97.10;;;;;;5012054;28;20459;-83
2022/10/09 09:36:24;;;;;;;6.40;2.70;;;16.60;96.50;;;;;;5014788;28;20857;-83
2022/10/09 09:38:53;;;;;;;4.10;3.10;;;17.10;95.00;;;;;;5015213;28;20455;-83
2022/10/09 09:41:20;;;;;;;3.50;2.40;;;17.50;93.90;;;;;;5023560;28;20532;-83
2022/10/09 09:43:47;;;;;;;5.67;3.30;;;17.90;93.10;;;;;;5034453;28;20449;-84
2022/10/09 09:46:17;;;;;;;6.83;2.80;;;18.00;92.60;;;;;;5034515;28;20443;-84
2022/10/09 09:48:47;;;;;;;5.03;3.10;;;18.30;92.20;;;;;;5018676;28;20474;-84
2022/10/09 09:51:18;;;;;;;3.83;2.90;;;19.40;90.90;;;;;;5014878;28;20490;-84
2022/10/09 09:53:47;;;;;;;4.67;3.57;;;21.90;85.90;;;;;;5014537;28;20859;-85
2022/10/09 09:56:16;;;;;;;5.60;2.90;;;24.00;72.90;;;;;;5015539;28;20453;-84
2022/10/09 09:58:46;;;;;;;3.83;3.20;;;24.30;68.40;;;;;;5015342;28;20950;-86
2022/10/09 10:01:22;;;;;;;4.97;3.07;;;25.10;66.70;;;;;;5015543;28;20460;-87
2022/10/09 10:03:51;;;;;;;4.60;3.30;;;26.40;61.20;;;;;;5015898;28;20467;-88
2022/10/09 10:06:21;;;;;;;4.87;2.67;;;27.60;57.40;;;;;;5015695;28;20867;-84
2022/10/09 10:08:59;;;;;;;2.70;2.37;;;28.40;54.70;;;;;;5014751;28;20454;-88
2022/10/09 10:11:27;;;;;;;5.23;3.03;;;28.40;52.20;;;;;;5016679;28;20485;-90
2022/10/09 10:13:54;;;;;;;5.53;2.70;;;29.40;51.20;;;;;;5015412;28;20461;-89
2022/10/09 10:16:23;;;;;;;1.97;1.77;;;30.60;48.70;;;;;;5015566;28;20448;-88
2022/10/09 10:18:50;;;;;;;5.57;2.63;;;31.80;46.80;;;;;;5017427;28;20458;-89
2022/10/09 10:21:19;;;;;;;4.77;2.50;;;32.10;44.00;;;;;;5017003;28;20459;-90
2022/10/09 10:23:52;;;;;;;3.23;2.40;;;32.30;42.00;;;;;;5015820;28;20535;-85
2022/10/09 10:26:24;;;;;;;3.90;2.60;;;33.20;42.00;;;;;;5025133;28;21121;-88
2022/10/09 10:28:57;;;;;;;2.60;2.40;;;33.20;41.10;;;;;;5018944;28;20449;-89
2022/10/09 10:31:37;;;;;;;3.03;2.50;;;31.30;41.80;;;;;;5015756;28;20489;-88
2022/10/09 10:34:07;;;;;;;3.03;2.17;;;30.00;43.40;;;;;;5015568;28;20453;-87
2022/10/09 10:36:35;;;;;;;3.60;2.47;;;30.00;44.50;;;;;;5032319;28;20465;-89
2022/10/09 10:39:10;;;;;;;3.40;2.03;;;30.10;44.00;;;;;;5035079;28;20453;-87
2022/10/09 10:41:44;;;;;;;3.80;2.60;;;30.40;43.20;;;;;;5037477;28;20444;-90
2022/10/09 10:44:20;;;;;;;3.13;1.80;;;29.00;44.10;;;;;;5024592;28;20457;-87
2022/10/09 10:46:51;;;;;;;3.20;2.90;;;29.00;44.10;;;;;;5017709;28;20944;-85
2022/10/09 10:49:20;;;;;;;2.90;2.17;;;28.40;45.90;;;;;;5022269;28;20450;-85
2022/10/09 10:51:55;;;;;;;3.20;2.20;;;28.40;45.50;;;;;;5032322;28;20489;-85
2022/10/09 10:54:32;;;;;;;3.27;2.73;;;30.20;44.20;;;;;;5036022;28;20431;-85
2022/10/09 10:57:09;;;;;;;3.33;1.90;;;30.20;42.20;;;;;;5020033;28;20967;-86
2022/10/09 10:59:47;;;;;;;2.97;2.23;;;29.10;43.80;;;;;;5014458;28;20838;-86
2022/10/09 11:02:38;;;;;;;3.50;2.00;;;29.90;42.70;;;;;;5025907;28;20442;-86
2022/10/09 11:05:18;;;;;;;2.17;1.73;;;29.90;43.50;;;;;;5016967;28;20452;-84
2022/10/09 11:07:55;;;;;;;3.30;2.23;;;30.10;42.60;;;;;;5014852;28;20859;-86
2022/10/09 11:10:33;;;;;;;3.37;1.83;;;30.30;41.20;;;;;;5015138;28;20466;-85
2022/10/09 11:13:06;;;;;;;1.87;1.43;;;29.10;42.20;;;;;;5029343;28;20492;-85
2022/10/09 11:15:41;;;;;;;2.87;1.90;;;29.40;42.60;;;;;;5027378;28;20444;-86
2022/10/09 11:18:25;;;;;;;4.67;1.87;;;29.00;41.90;;;;;;5013675;28;20465;-85
2022/10/09 11:21:05;;;;;;;3.10;1.97;;;29.00;42.50;;;;;;5014800;28;20497;-85
2022/10/09 11:23:47;;;;;;;4.00;1.80;;;29.50;42.60;;;;;;5014256;28;21789;-85
2022/10/09 11:26:26;;;;;;;2.97;2.20;;;29.20;41.50;;;;;;5003806;28;20448;-85
2022/10/09 11:29:00;;;;;;;3.50;1.90;;;29.40;41.60;;;;;;5013981;28;20440;-85
2022/10/09 11:31:34;;;;;;;3.67;2.23;;;28.80;42.00;;;;;;4997135;28;20616;-85
2022/10/09 11:34:07;;;;;;;2.47;1.90;;;27.90;43.10;;;;;;4994304;28;20456;-85
2022/10/09 11:36:38;;;;;;;4.43;2.17;;;27.70;43.50;;;;;;4994107;28;20447;-85
2022/10/09 11:39:12;;;;;;;4.87;2.13;;;27.00;44.30;;;;;;4993138;28;20459;-86
2022/10/09 11:41:40;;;;;;;4.40;1.70;;;27.10;44.40;;;;;;5010847;28;20549;-86
2022/10/09 11:44:29;;;;;;;3.37;1.73;;;27.10;44.30;;;;;;5013532;28;20465;-86
2022/10/09 11:47:07;;;;;;;1.93;1.30;;;27.50;44.30;;;;;;5013880;28;20458;-92
2022/10/09 11:49:43;;;;;;;2.47;1.70;;;28.10;44.50;;;;;;5013378;28;20845;-86
2022/10/09 11:52:18;;;;;;;2.43;1.40;;;29.00;42.40;;;;;;5021518;28;20474;-84
2022/10/09 11:54:45;;;;;;;3.03;1.97;;;29.50;41.70;;;;;;5017096;28;20449;-85
2022/10/09 11:57:12;;;;;;;3.20;1.90;;;29.50;41.40;;;;;;5014056;28;20451;-84
2022/10/09 11:59:41;;;;;;;3.17;1.77;;;29.20;41.70;;;;;;5013685;28;20474;-85
2022/10/09 12:02:24;;;;;;;3.30;1.87;;;29.70;40.90;;;;;;5013734;28;20529;-85
2022/10/09 12:04:51;;;;;;;3.00;1.53;;;28.80;41.00;;;;;;5013975;28;20446;-85
2022/10/09 12:07:28;;;;;;;2.93;1.60;;;27.90;42.30;;;;;;5013179;28;20450;-88
2022/10/09 12:10:00;;;;;;;3.50;1.90;;;26.30;44.10;;;;;;5013832;28;20503;-84
2022/10/09 12:12:27;;;;;;;3.70;1.63;;;25.60;45.90;;;;;;5012910;28;20488;-85
2022/10/09 12:14:54;;;;;;;2.27;1.40;;;25.50;46.30;;;;;;5015516;28;20451;-84
2022/10/09 12:17:34;;;;;;;3.00;1.53;;;25.90;46.00;;;;;;5021204;28;20445;-85
2022/10/09 12:20:08;;;;;;;2.40;1.70;;;27.00;45.70;;;;;;5026448;28;20468;-84
2022/10/09 12:22:36;;;;;;;2.27;1.50;;;27.80;43.70;;;;;;5021482;28;20451;-82
2022/10/09 12:25:07;;;;;;;3.10;1.70;;;27.00;43.60;;;;;;5051246;28;20443;-85
2022/10/09 12:27:36;;;;;;;3.00;1.60;;;26.20;45.10;;;;;;5037788;28;20959;-85
2022/10/09 12:30:15;;;;;;;6.17;1.50;;;25.70;45.50;;;;;;5032103;28;20459;-85
2022/10/09 12:32:47;;;;;;;2.90;2.00;;;24.50;47.40;;;;;;5033565;28;20543;-85
2022/10/09 12:35:21;;;;;;;3.13;1.90;;;23.30;49.10;;;;;;5024217;28;20450;-84
2022/10/09 12:37:48;;;;;;;4.10;2.20;;;22.60;50.50;;;;;;5023350;28;20439;-84
2022/10/09 12:40:17;;;;;;;3.93;2.30;;;21.90;51.30;;;;;;5015742;28;20475;-84
2022/10/09 12:42:45;;;;;;;5.80;1.83;;;21.40;52.20;;;;;;5012052;28;20442;-84
2022/10/09 12:45:17;;;;;;;2.80;1.80;;;21.10;53.30;;;;;;5032489;28;20533;-84
2022/10/09 12:47:46;;;;;;;3.50;2.37;;;21.60;53.00;;;;;;5022587;28;20454;-83
2022/10/09 12:50:23;;;;;;;4.80;1.80;;;22.20;52.60;;;;;;5014250;28;20610;-84
2022/10/09 12:52:51;;;;;;;2.33;1.87;;;23.30;51.40;;;;;;5014294;28;20482;-84
2022/10/09 12:55:25;;;;;;;2.90;1.80;;;24.10;50.50;;;;;;5014354;28;20537;-84
2022/10/09 12:57:53;;;;;;;1.90;1.70;;;24.70;49.00;;;;;;5014310;28;20814;-84
2022/10/09 13:00:20;;;;;;;2.63;1.50;;;24.80;48.40;;;;;;5013792;28;21251;-84
2022/10/09 13:02:48;;;;;;;3.63;1.80;;;24.60;48.30;;;;;;5025785;28;20437;-84